sensor_id;sensor_type;location;lat;lon;timestamp;P1;durP1;ratioP1;P2;durP2;ratioP2
25207;SDS011;13153;52.316;21.166;2023-07-02T00:02:04;23.02;;;16.02;;
25207;SDS011;13153;52.316;21.166;2023-07-02T00:04:30;22.75;;;15.40;;
25207;SDS011;13153;52.316;21.166;2023-07-02T00:06:56;22.75;;;16.17;;
25207;SDS011;13153;52.316;21.166;2023-07-02T00:09:21;23.50;;;16.55;;
25207;SDS011;13153;52.316;21.166;2023-07-02T00:11:47;22.58;;;16.05;;
25207;SDS011;13153;52.316;21.166;2023-07-02T00:14:13;22.60;;;16.45;;
25207;SDS011;13153;52.316;21.166;2023-07-02T00:16:44;21.25;;;15.48;;
25207;SDS011;13153;52.316;21.166;2023-07-02T00:19:11;23.50;;;15.65;;
25207;SDS011;13153;52.316;21.166;2023-07-02T00:21:39;27.05;;;18.00;;
25207;SDS011;13153;52.316;21.166;2023-07-02T00:24:05;23.48;;;17.00;;
25207;SDS011;13153;52.316;21.166;2023-07-02T00:26:34;22.30;;;15.48;;
25207;SDS011;13153;52.316;21.166;2023-07-02T00:29:02;20.98;;;15.40;;
25207;SDS011;13153;52.316;21.166;2023-07-02T00:31:31;24.42;;;16.92;;
25207;SDS011;13153;52.316;21.166;2023-07-02T00:33:57;26.17;;;16.77;;
25207;SDS011;13153;52.316;21.166;2023-07-02T00:36:23;22.63;;;17.25;;
25207;SDS011;13153;52.316;21.166;2023-07-02T00:38:49;25.40;;;17.60;;
25207;SDS011;13153;52.316;21.166;2023-07-02T00:41:15;26.42;;;17.83;;
25207;SDS011;13153;52.316;21.166;2023-07-02T00:43:41;28.25;;;17.77;;
25207;SDS011;13153;52.316;21.166;2023-07-02T00:46:19;24.55;;;16.92;;
25207;SDS011;13153;52.316;21.166;2023-07-02T00:48:47;27.38;;;17.85;;
25207;SDS011;13153;52.316;21.166;2023-07-02T00:51:18;24.85;;;17.70;;
25207;SDS011;13153;52.316;21.166;2023-07-02T00:53:50;24.73;;;16.88;;
25207;SDS011;13153;52.316;21.166;2023-07-02T00:56:20;27.75;;;17.65;;
25207;SDS011;13153;52.316;21.166;2023-07-02T00:58:48;21.73;;;16.70;;
25207;SDS011;13153;52.316;21.166;2023-07-02T01:01:22;26.38;;;18.92;;
25207;SDS011;13153;52.316;21.166;2023-07-02T01:03:56;26.02;;;17.95;;
25207;SDS011;13153;52.316;21.166;2023-07-02T01:06:28;31.15;;;18.63;;
25207;SDS011;13153;52.316;21.166;2023-07-02T01:08:57;27.25;;;19.73;;
25207;SDS011;13153;52.316;21.166;2023-07-02T01:11:26;27.25;;;18.48;;
25207;SDS011;13153;52.316;21.166;2023-07-02T01:13:59;26.52;;;19.05;;
25207;SDS011;13153;52.316;21.166;2023-07-02T01:16:30;27.42;;;18.70;;
25207;SDS011;13153;52.316;21.166;2023-07-02T01:18:57;30.02;;;19.30;;
25207;SDS011;13153;52.316;21.166;2023-07-02T01:21:28;26.13;;;18.65;;
25207;SDS011;13153;52.316;21.166;2023-07-02T01:23:57;26.73;;;18.98;;
25207;SDS011;13153;52.316;21.166;2023-07-02T01:26:31;28.30;;;18.77;;
25207;SDS011;13153;52.316;21.166;2023-07-02T01:29:14;26.65;;;17.92;;
25207;SDS011;13153;52.316;21.166;2023-07-02T01:31:49;24.88;;;18.38;;
25207;SDS011;13153;52.316;21.166;2023-07-02T01:34:14;27.67;;;19.10;;
25207;SDS011;13153;52.316;21.166;2023-07-02T01:36:40;28.70;;;19.40;;
25207;SDS011;13153;52.316;21.166;2023-07-02T01:39:06;28.48;;;19.58;;
25207;SDS011;13153;52.316;21.166;2023-07-02T01:41:51;28.35;;;18.90;;
25207;SDS011;13153;52.316;21.166;2023-07-02T01:44:19;28.98;;;19.52;;
25207;SDS011;13153;52.316;21.166;2023-07-02T01:46:46;26.35;;;19.00;;
25207;SDS011;13153;52.316;21.166;2023-07-02T01:49:17;30.35;;;18.85;;
25207;SDS011;13153;52.316;21.166;2023-07-02T01:51:53;24.33;;;17.77;;
25207;SDS011;13153;52.316;21.166;2023-07-02T01:54:21;28.98;;;19.45;;
25207;SDS011;13153;52.316;21.166;2023-07-02T01:56:52;32.28;;;19.90;;
25207;SDS011;13153;52.316;21.166;2023-07-02T01:59:18;30.58;;;19.30;;
25207;SDS011;13153;52.316;21.166;2023-07-02T02:01:44;26.05;;;18.42;;
25207;SDS011;13153;52.316;21.166;2023-07-02T02:04:10;27.42;;;18.98;;
25207;SDS011;13153;52.316;21.166;2023-07-02T02:06:37;30.00;;;19.25;;
25207;SDS011;13153;52.316;21.166;2023-07-02T02:09:04;26.20;;;18.88;;
25207;SDS011;13153;52.316;21.166;2023-07-02T02:11:31;27.50;;;18.48;;
25207;SDS011;13153;52.316;21.166;2023-07-02T02:13:58;30.13;;;19.63;;
25207;SDS011;13153;52.316;21.166;2023-07-02T02:16:26;29.77;;;19.23;;
25207;SDS011;13153;52.316;21.166;2023-07-02T02:18:52;27.55;;;19.17;;
25207;SDS011;13153;52.316;21.166;2023-07-02T02:21:22;26.50;;;19.17;;
25207;SDS011;13153;52.316;21.166;2023-07-02T02:23:48;26.60;;;19.13;;
25207;SDS011;13153;52.316;21.166;2023-07-02T02:26:14;25.40;;;18.58;;
25207;SDS011;13153;52.316;21.166;2023-07-02T02:28:41;27.80;;;19.20;;
25207;SDS011;13153;52.316;21.166;2023-07-02T02:31:07;28.67;;;19.58;;
25207;SDS011;13153;52.316;21.166;2023-07-02T02:33:34;29.10;;;20.33;;
25207;SDS011;13153;52.316;21.166;2023-07-02T02:36:00;27.95;;;19.75;;
25207;SDS011;13153;52.316;21.166;2023-07-02T02:38:27;24.95;;;19.20;;
25207;SDS011;13153;52.316;21.166;2023-07-02T02:40:53;27.25;;;19.58;;
25207;SDS011;13153;52.316;21.166;2023-07-02T02:43:19;26.85;;;20.05;;
25207;SDS011;13153;52.316;21.166;2023-07-02T02:45:45;28.05;;;20.38;;
25207;SDS011;13153;52.316;21.166;2023-07-02T02:48:12;30.08;;;20.63;;
25207;SDS011;13153;52.316;21.166;2023-07-02T02:50:38;28.23;;;20.20;;
25207;SDS011;13153;52.316;21.166;2023-07-02T02:53:08;26.30;;;18.88;;
25207;SDS011;13153;52.316;21.166;2023-07-02T02:55:37;28.95;;;18.75;;
25207;SDS011;13153;52.316;21.166;2023-07-02T02:58:03;27.98;;;19.73;;
25207;SDS011;13153;52.316;21.166;2023-07-02T03:00:29;28.80;;;20.95;;
25207;SDS011;13153;52.316;21.166;2023-07-02T03:02:55;27.35;;;19.08;;
25207;SDS011;13153;52.316;21.166;2023-07-02T03:05:23;28.13;;;19.88;;
25207;SDS011;13153;52.316;21.166;2023-07-02T03:07:50;27.95;;;19.77;;
25207;SDS011;13153;52.316;21.166;2023-07-02T03:10:16;26.23;;;19.27;;
25207;SDS011;13153;52.316;21.166;2023-07-02T03:12:42;29.23;;;20.48;;
25207;SDS011;13153;52.316;21.166;2023-07-02T03:15:08;26.95;;;20.13;;
25207;SDS011;13153;52.316;21.166;2023-07-02T03:17:35;26.92;;;19.48;;
25207;SDS011;13153;52.316;21.166;2023-07-02T03:20:01;27.45;;;18.73;;
25207;SDS011;13153;52.316;21.166;2023-07-02T03:22:29;25.88;;;18.73;;
25207;SDS011;13153;52.316;21.166;2023-07-02T03:24:55;28.45;;;20.00;;
25207;SDS011;13153;52.316;21.166;2023-07-02T03:27:21;27.20;;;20.08;;
25207;SDS011;13153;52.316;21.166;2023-07-02T03:29:46;26.73;;;20.05;;
25207;SDS011;13153;52.316;21.166;2023-07-02T03:32:12;29.15;;;19.33;;
25207;SDS011;13153;52.316;21.166;2023-07-02T03:34:38;26.40;;;19.90;;
25207;SDS011;13153;52.316;21.166;2023-07-02T03:37:04;28.23;;;19.85;;
25207;SDS011;13153;52.316;21.166;2023-07-02T03:39:30;26.33;;;19.48;;
25207;SDS011;13153;52.316;21.166;2023-07-02T03:41:55;27.20;;;19.38;;
25207;SDS011;13153;52.316;21.166;2023-07-02T03:44:21;26.92;;;19.73;;
25207;SDS011;13153;52.316;21.166;2023-07-02T03:46:47;25.45;;;18.40;;
25207;SDS011;13153;52.316;21.166;2023-07-02T03:49:13;30.38;;;20.70;;
25207;SDS011;13153;52.316;21.166;2023-07-02T03:51:39;30.08;;;22.02;;
25207;SDS011;13153;52.316;21.166;2023-07-02T03:54:04;27.35;;;19.92;;
25207;SDS011;13153;52.316;21.166;2023-07-02T03:56:30;27.20;;;20.02;;
25207;SDS011;13153;52.316;21.166;2023-07-02T03:58:56;27.38;;;19.38;;
25207;SDS011;13153;52.316;21.166;2023-07-02T04:01:21;28.35;;;19.50;;
25207;SDS011;13153;52.316;21.166;2023-07-02T04:03:51;30.25;;;21.55;;
25207;SDS011;13153;52.316;21.166;2023-07-02T04:06:18;28.27;;;19.42;;
25207;SDS011;13153;52.316;21.166;2023-07-02T04:08:44;26.52;;;18.63;;
25207;SDS011;13153;52.316;21.166;2023-07-02T04:11:10;25.88;;;18.52;;
25207;SDS011;13153;52.316;21.166;2023-07-02T04:13:36;23.52;;;18.13;;
25207;SDS011;13153;52.316;21.166;2023-07-02T04:16:04;26.98;;;19.13;;
25207;SDS011;13153;52.316;21.166;2023-07-02T04:18:30;23.30;;;18.05;;
25207;SDS011;13153;52.316;21.166;2023-07-02T04:20:57;24.70;;;18.25;;
25207;SDS011;13153;52.316;21.166;2023-07-02T04:23:24;22.98;;;17.58;;
25207;SDS011;13153;52.316;21.166;2023-07-02T04:25:50;26.08;;;18.00;;
25207;SDS011;13153;52.316;21.166;2023-07-02T04:28:16;21.98;;;17.30;;
25207;SDS011;13153;52.316;21.166;2023-07-02T04:30:42;22.35;;;17.00;;
25207;SDS011;13153;52.316;21.166;2023-07-02T04:33:08;26.67;;;18.77;;
25207;SDS011;13153;52.316;21.166;2023-07-02T04:35:34;26.25;;;18.20;;
25207;SDS011;13153;52.316;21.166;2023-07-02T04:38:00;27.77;;;17.90;;
25207;SDS011;13153;52.316;21.166;2023-07-02T04:40:26;24.33;;;18.38;;
25207;SDS011;13153;52.316;21.166;2023-07-02T04:42:52;24.23;;;17.40;;
25207;SDS011;13153;52.316;21.166;2023-07-02T04:45:24;25.85;;;17.67;;
25207;SDS011;13153;52.316;21.166;2023-07-02T04:47:52;24.98;;;17.95;;
25207;SDS011;13153;52.316;21.166;2023-07-02T04:50:18;21.88;;;16.38;;
25207;SDS011;13153;52.316;21.166;2023-07-02T04:52:44;23.23;;;16.38;;
25207;SDS011;13153;52.316;21.166;2023-07-02T04:55:10;21.98;;;16.50;;
25207;SDS011;13153;52.316;21.166;2023-07-02T04:57:36;21.92;;;16.17;;
25207;SDS011;13153;52.316;21.166;2023-07-02T05:00:02;21.95;;;16.25;;
25207;SDS011;13153;52.316;21.166;2023-07-02T05:02:30;24.23;;;17.17;;
25207;SDS011;13153;52.316;21.166;2023-07-02T05:04:57;21.13;;;16.10;;
25207;SDS011;13153;52.316;21.166;2023-07-02T05:07:23;21.80;;;16.15;;
25207;SDS011;13153;52.316;21.166;2023-07-02T05:09:48;22.45;;;15.85;;
25207;SDS011;13153;52.316;21.166;2023-07-02T05:12:17;19.73;;;14.68;;
25207;SDS011;13153;52.316;21.166;2023-07-02T05:14:43;25.85;;;16.30;;
25207;SDS011;13153;52.316;21.166;2023-07-02T05:17:08;19.20;;;14.25;;
25207;SDS011;13153;52.316;21.166;2023-07-02T05:19:34;20.00;;;14.35;;
25207;SDS011;13153;52.316;21.166;2023-07-02T05:22:00;20.88;;;14.65;;
25207;SDS011;13153;52.316;21.166;2023-07-02T05:24:26;21.98;;;13.75;;
25207;SDS011;13153;52.316;21.166;2023-07-02T05:26:51;17.95;;;14.13;;
25207;SDS011;13153;52.316;21.166;2023-07-02T05:29:18;17.63;;;12.15;;
25207;SDS011;13153;52.316;21.166;2023-07-02T05:31:44;14.43;;;11.93;;
25207;SDS011;13153;52.316;21.166;2023-07-02T05:34:10;16.05;;;12.00;;
25207;SDS011;13153;52.316;21.166;2023-07-02T05:36:36;16.58;;;11.77;;
25207;SDS011;13153;52.316;21.166;2023-07-02T05:39:02;16.67;;;11.25;;
25207;SDS011;13153;52.316;21.166;2023-07-02T05:41:28;15.18;;;10.70;;
25207;SDS011;13153;52.316;21.166;2023-07-02T05:43:58;16.88;;;11.20;;
25207;SDS011;13153;52.316;21.166;2023-07-02T05:46:24;12.98;;;10.05;;
25207;SDS011;13153;52.316;21.166;2023-07-02T05:48:51;11.80;;;9.27;;
25207;SDS011;13153;52.316;21.166;2023-07-02T05:51:23;13.00;;;9.52;;
25207;SDS011;13153;52.316;21.166;2023-07-02T05:53:50;13.60;;;9.45;;
25207;SDS011;13153;52.316;21.166;2023-07-02T05:56:16;15.30;;;9.50;;
25207;SDS011;13153;52.316;21.166;2023-07-02T05:58:43;12.50;;;9.18;;
25207;SDS011;13153;52.316;21.166;2023-07-02T06:01:10;11.27;;;8.95;;
25207;SDS011;13153;52.316;21.166;2023-07-02T06:03:36;13.93;;;9.23;;
25207;SDS011;13153;52.316;21.166;2023-07-02T06:06:02;10.52;;;8.13;;
25207;SDS011;13153;52.316;21.166;2023-07-02T06:08:28;11.52;;;7.78;;
25207;SDS011;13153;52.316;21.166;2023-07-02T06:10:54;11.40;;;8.75;;
25207;SDS011;13153;52.316;21.166;2023-07-02T06:13:20;10.38;;;8.15;;
25207;SDS011;13153;52.316;21.166;2023-07-02T06:15:45;12.18;;;8.48;;
25207;SDS011;13153;52.316;21.166;2023-07-02T06:18:12;11.02;;;7.70;;
25207;SDS011;13153;52.316;21.166;2023-07-02T06:20:38;12.65;;;7.63;;
25207;SDS011;13153;52.316;21.166;2023-07-02T06:23:04;10.95;;;7.70;;
25207;SDS011;13153;52.316;21.166;2023-07-02T06:25:31;11.80;;;7.82;;
25207;SDS011;13153;52.316;21.166;2023-07-02T06:27:57;11.30;;;7.88;;
25207;SDS011;13153;52.316;21.166;2023-07-02T06:30:23;8.45;;;6.93;;
25207;SDS011;13153;52.316;21.166;2023-07-02T06:32:50;10.43;;;7.20;;
25207;SDS011;13153;52.316;21.166;2023-07-02T06:35:16;10.00;;;7.13;;
25207;SDS011;13153;52.316;21.166;2023-07-02T06:37:42;11.20;;;7.63;;
25207;SDS011;13153;52.316;21.166;2023-07-02T06:40:08;11.55;;;7.22;;
25207;SDS011;13153;52.316;21.166;2023-07-02T06:42:35;11.98;;;7.30;;
25207;SDS011;13153;52.316;21.166;2023-07-02T06:45:01;11.32;;;7.32;;
25207;SDS011;13153;52.316;21.166;2023-07-02T06:47:28;9.90;;;7.72;;
25207;SDS011;13153;52.316;21.166;2023-07-02T06:49:54;15.00;;;8.10;;
25207;SDS011;13153;52.316;21.166;2023-07-02T06:52:19;12.38;;;8.00;;
25207;SDS011;13153;52.316;21.166;2023-07-02T06:54:45;11.05;;;7.65;;
25207;SDS011;13153;52.316;21.166;2023-07-02T06:57:12;12.40;;;7.47;;
25207;SDS011;13153;52.316;21.166;2023-07-02T06:59:38;12.70;;;7.45;;
25207;SDS011;13153;52.316;21.166;2023-07-02T07:02:04;9.05;;;6.63;;
25207;SDS011;13153;52.316;21.166;2023-07-02T07:04:31;11.57;;;7.32;;
25207;SDS011;13153;52.316;21.166;2023-07-02T07:06:59;13.90;;;7.85;;
25207;SDS011;13153;52.316;21.166;2023-07-02T07:09:28;12.50;;;7.15;;
25207;SDS011;13153;52.316;21.166;2023-07-02T07:11:57;7.30;;;6.40;;
25207;SDS011;13153;52.316;21.166;2023-07-02T07:14:23;10.98;;;6.60;;
25207;SDS011;13153;52.316;21.166;2023-07-02T07:16:49;10.55;;;6.90;;
25207;SDS011;13153;52.316;21.166;2023-07-02T07:19:15;11.27;;;6.32;;
25207;SDS011;13153;52.316;21.166;2023-07-02T07:21:41;11.27;;;6.40;;
25207;SDS011;13153;52.316;21.166;2023-07-02T07:24:08;9.75;;;6.35;;
25207;SDS011;13153;52.316;21.166;2023-07-02T07:26:34;9.57;;;6.53;;
25207;SDS011;13153;52.316;21.166;2023-07-02T07:29:00;10.98;;;7.15;;
25207;SDS011;13153;52.316;21.166;2023-07-02T07:31:26;9.38;;;6.50;;
25207;SDS011;13153;52.316;21.166;2023-07-02T07:33:51;10.45;;;5.78;;
25207;SDS011;13153;52.316;21.166;2023-07-02T07:36:17;9.68;;;6.43;;
25207;SDS011;13153;52.316;21.166;2023-07-02T07:38:44;9.68;;;5.82;;
25207;SDS011;13153;52.316;21.166;2023-07-02T07:41:10;8.52;;;5.65;;
25207;SDS011;13153;52.316;21.166;2023-07-02T07:43:35;9.57;;;5.28;;
25207;SDS011;13153;52.316;21.166;2023-07-02T07:46:01;10.38;;;5.80;;
25207;SDS011;13153;52.316;21.166;2023-07-02T07:48:27;11.45;;;5.97;;
25207;SDS011;13153;52.316;21.166;2023-07-02T07:50:53;7.95;;;6.05;;
25207;SDS011;13153;52.316;21.166;2023-07-02T07:53:20;9.80;;;5.75;;
25207;SDS011;13153;52.316;21.166;2023-07-02T07:55:45;7.68;;;5.35;;
25207;SDS011;13153;52.316;21.166;2023-07-02T07:58:11;8.85;;;5.20;;
25207;SDS011;13153;52.316;21.166;2023-07-02T08:00:37;8.45;;;5.57;;
25207;SDS011;13153;52.316;21.166;2023-07-02T08:03:03;12.88;;;6.57;;
25207;SDS011;13153;52.316;21.166;2023-07-02T08:05:29;7.65;;;5.13;;
25207;SDS011;13153;52.316;21.166;2023-07-02T08:07:56;11.13;;;5.25;;
25207;SDS011;13153;52.316;21.166;2023-07-02T08:10:22;7.43;;;4.60;;
25207;SDS011;13153;52.316;21.166;2023-07-02T08:12:50;6.38;;;3.95;;
25207;SDS011;13153;52.316;21.166;2023-07-02T08:15:17;5.25;;;4.03;;
25207;SDS011;13153;52.316;21.166;2023-07-02T08:17:44;7.05;;;4.40;;
25207;SDS011;13153;52.316;21.166;2023-07-02T08:20:10;8.40;;;4.00;;
25207;SDS011;13153;52.316;21.166;2023-07-02T08:22:39;9.65;;;4.32;;
25207;SDS011;13153;52.316;21.166;2023-07-02T08:25:06;6.38;;;4.20;;
25207;SDS011;13153;52.316;21.166;2023-07-02T08:27:32;8.88;;;4.82;;
25207;SDS011;13153;52.316;21.166;2023-07-02T08:29:58;8.75;;;4.95;;
25207;SDS011;13153;52.316;21.166;2023-07-02T08:32:24;7.53;;;4.20;;
25207;SDS011;13153;52.316;21.166;2023-07-02T08:34:50;6.80;;;4.13;;
25207;SDS011;13153;52.316;21.166;2023-07-02T08:37:19;7.72;;;4.00;;
25207;SDS011;13153;52.316;21.166;2023-07-02T08:39:46;6.07;;;3.85;;
25207;SDS011;13153;52.316;21.166;2023-07-02T08:42:14;9.00;;;3.70;;
25207;SDS011;13153;52.316;21.166;2023-07-02T08:44:40;6.68;;;3.60;;
25207;SDS011;13153;52.316;21.166;2023-07-02T08:47:10;3.60;;;3.00;;
25207;SDS011;13153;52.316;21.166;2023-07-02T08:49:36;4.85;;;3.30;;
25207;SDS011;13153;52.316;21.166;2023-07-02T08:52:02;4.90;;;3.13;;
25207;SDS011;13153;52.316;21.166;2023-07-02T08:54:28;8.63;;;4.35;;
25207;SDS011;13153;52.316;21.166;2023-07-02T08:56:54;5.10;;;3.40;;
25207;SDS011;13153;52.316;21.166;2023-07-02T08:59:20;5.15;;;3.60;;
25207;SDS011;13153;52.316;21.166;2023-07-02T09:01:49;6.43;;;3.63;;
25207;SDS011;13153;52.316;21.166;2023-07-02T09:04:21;7.13;;;3.63;;
25207;SDS011;13153;52.316;21.166;2023-07-02T09:07:11;6.65;;;3.70;;
25207;SDS011;13153;52.316;21.166;2023-07-02T09:09:49;4.50;;;3.40;;
25207;SDS011;13153;52.316;21.166;2023-07-02T09:12:28;6.82;;;3.80;;
25207;SDS011;13153;52.316;21.166;2023-07-02T09:15:00;8.52;;;3.80;;
25207;SDS011;13153;52.316;21.166;2023-07-02T09:17:34;5.00;;;3.40;;
25207;SDS011;13153;52.316;21.166;2023-07-02T09:20:02;5.97;;;4.03;;
25207;SDS011;13153;52.316;21.166;2023-07-02T09:22:33;5.57;;;3.70;;
25207;SDS011;13153;52.316;21.166;2023-07-02T09:25:01;4.90;;;3.53;;
25207;SDS011;13153;52.316;21.166;2023-07-02T09:30:10;7.70;;;3.35;;
25207;SDS011;13153;52.316;21.166;2023-07-02T09:32:41;7.28;;;3.35;;
25207;SDS011;13153;52.316;21.166;2023-07-02T09:35:09;6.30;;;3.63;;
25207;SDS011;13153;52.316;21.166;2023-07-02T09:37:35;3.83;;;3.38;;
25207;SDS011;13153;52.316;21.166;2023-07-02T09:40:03;4.00;;;3.60;;
25207;SDS011;13153;52.316;21.166;2023-07-02T09:42:34;3.72;;;3.13;;
25207;SDS011;13153;52.316;21.166;2023-07-02T09:45:04;5.90;;;3.53;;
25207;SDS011;13153;52.316;21.166;2023-07-02T09:47:36;5.55;;;3.53;;
25207;SDS011;13153;52.316;21.166;2023-07-02T09:50:11;6.43;;;4.18;;
25207;SDS011;13153;52.316;21.166;2023-07-02T09:52:40;6.78;;;3.78;;
25207;SDS011;13153;52.316;21.166;2023-07-02T09:55:07;5.47;;;3.70;;
25207;SDS011;13153;52.316;21.166;2023-07-02T09:57:34;6.07;;;3.47;;
25207;SDS011;13153;52.316;21.166;2023-07-02T10:00:01;3.13;;;2.83;;
25207;SDS011;13153;52.316;21.166;2023-07-02T10:02:28;6.97;;;3.10;;
25207;SDS011;13153;52.316;21.166;2023-07-02T10:04:54;4.68;;;3.08;;
25207;SDS011;13153;52.316;21.166;2023-07-02T10:07:29;3.10;;;2.80;;
25207;SDS011;13153;52.316;21.166;2023-07-02T10:10:00;5.20;;;2.80;;
25207;SDS011;13153;52.316;21.166;2023-07-02T10:12:29;3.80;;;2.90;;
25207;SDS011;13153;52.316;21.166;2023-07-02T10:14:56;2.90;;;2.60;;
25207;SDS011;13153;52.316;21.166;2023-07-02T10:20:00;5.57;;;3.20;;
25207;SDS011;13153;52.316;21.166;2023-07-02T10:25:27;5.07;;;2.90;;
25207;SDS011;13153;52.316;21.166;2023-07-02T10:27:56;3.45;;;2.60;;
25207;SDS011;13153;52.316;21.166;2023-07-02T10:30:34;4.63;;;3.08;;
25207;SDS011;13153;52.316;21.166;2023-07-02T10:35:43;4.25;;;2.72;;
25207;SDS011;13153;52.316;21.166;2023-07-02T10:38:19;5.55;;;2.60;;
25207;SDS011;13153;52.316;21.166;2023-07-02T10:40:53;3.30;;;2.70;;
25207;SDS011;13153;52.316;21.166;2023-07-02T10:43:28;4.70;;;2.67;;
25207;SDS011;13153;52.316;21.166;2023-07-02T10:45:57;6.32;;;2.60;;
25207;SDS011;13153;52.316;21.166;2023-07-02T10:48:28;6.53;;;2.38;;
25207;SDS011;13153;52.316;21.166;2023-07-02T10:50:54;4.93;;;2.20;;
25207;SDS011;13153;52.316;21.166;2023-07-02T10:53:20;7.40;;;2.40;;
25207;SDS011;13153;52.316;21.166;2023-07-02T10:55:53;5.55;;;4.38;;
25207;SDS011;13153;52.316;21.166;2023-07-02T10:58:21;3.58;;;2.20;;
25207;SDS011;13153;52.316;21.166;2023-07-02T11:00:47;5.72;;;2.10;;
25207;SDS011;13153;52.316;21.166;2023-07-02T11:03:33;6.07;;;3.33;;
25207;SDS011;13153;52.316;21.166;2023-07-02T11:05:59;4.68;;;2.40;;
25207;SDS011;13153;52.316;21.166;2023-07-02T11:08:33;4.30;;;2.10;;
25207;SDS011;13153;52.316;21.166;2023-07-02T11:11:07;2.13;;;1.95;;
25207;SDS011;13153;52.316;21.166;2023-07-02T11:13:33;5.45;;;2.30;;
25207;SDS011;13153;52.316;21.166;2023-07-02T11:15:59;4.30;;;2.10;;
25207;SDS011;13153;52.316;21.166;2023-07-02T11:18:30;4.30;;;3.50;;
25207;SDS011;13153;52.316;21.166;2023-07-02T11:20:56;2.63;;;2.40;;
25207;SDS011;13153;52.316;21.166;2023-07-02T11:23:23;5.07;;;2.00;;
25207;SDS011;13153;52.316;21.166;2023-07-02T11:25:56;2.90;;;2.10;;
25207;SDS011;13153;52.316;21.166;2023-07-02T11:28:24;2.10;;;1.83;;
25207;SDS011;13153;52.316;21.166;2023-07-02T11:30:50;2.10;;;1.80;;
25207;SDS011;13153;52.316;21.166;2023-07-02T11:33:16;5.32;;;1.95;;
25207;SDS011;13153;52.316;21.166;2023-07-02T11:35:43;2.30;;;2.03;;
25207;SDS011;13153;52.316;21.166;2023-07-02T11:38:09;2.13;;;1.92;;
25207;SDS011;13153;52.316;21.166;2023-07-02T11:40:35;5.18;;;2.10;;
25207;SDS011;13153;52.316;21.166;2023-07-02T11:43:02;2.55;;;2.20;;
25207;SDS011;13153;52.316;21.166;2023-07-02T11:45:28;2.55;;;2.10;;
25207;SDS011;13153;52.316;21.166;2023-07-02T11:47:54;4.40;;;2.10;;
25207;SDS011;13153;52.316;21.166;2023-07-02T11:50:20;2.33;;;1.92;;
25207;SDS011;13153;52.316;21.166;2023-07-02T11:52:46;2.90;;;1.70;;
25207;SDS011;13153;52.316;21.166;2023-07-02T11:55:12;5.05;;;2.10;;
25207;SDS011;13153;52.316;21.166;2023-07-02T11:57:37;2.15;;;1.92;;
25207;SDS011;13153;52.316;21.166;2023-07-02T12:00:03;4.63;;;2.15;;
25207;SDS011;13153;52.316;21.166;2023-07-02T12:02:30;4.72;;;2.28;;
25207;SDS011;13153;52.316;21.166;2023-07-02T12:04:56;2.88;;;2.28;;
25207;SDS011;13153;52.316;21.166;2023-07-02T12:07:21;5.15;;;2.72;;
25207;SDS011;13153;52.316;21.166;2023-07-02T12:09:47;7.20;;;2.60;;
25207;SDS011;13153;52.316;21.166;2023-07-02T12:12:13;7.78;;;2.30;;
25207;SDS011;13153;52.316;21.166;2023-07-02T12:14:39;4.03;;;2.60;;
25207;SDS011;13153;52.316;21.166;2023-07-02T12:17:08;7.47;;;2.65;;
25207;SDS011;13153;52.316;21.166;2023-07-02T12:19:38;4.65;;;2.47;;
25207;SDS011;13153;52.316;21.166;2023-07-02T12:22:05;3.22;;;2.15;;
25207;SDS011;13153;52.316;21.166;2023-07-02T12:24:31;3.63;;;1.90;;
25207;SDS011;13153;52.316;21.166;2023-07-02T12:26:57;2.67;;;1.90;;
25207;SDS011;13153;52.316;21.166;2023-07-02T12:29:23;5.35;;;2.22;;
25207;SDS011;13153;52.316;21.166;2023-07-02T12:31:49;3.97;;;2.00;;
25207;SDS011;13153;52.316;21.166;2023-07-02T12:34:14;3.53;;;2.03;;
25207;SDS011;13153;52.316;21.166;2023-07-02T12:36:41;4.85;;;2.00;;
25207;SDS011;13153;52.316;21.166;2023-07-02T12:39:06;4.88;;;2.80;;
25207;SDS011;13153;52.316;21.166;2023-07-02T12:41:33;3.95;;;2.10;;
25207;SDS011;13153;52.316;21.166;2023-07-02T12:43:59;5.90;;;2.08;;
25207;SDS011;13153;52.316;21.166;2023-07-02T12:46:25;5.00;;;1.80;;
25207;SDS011;13153;52.316;21.166;2023-07-02T12:48:50;5.05;;;2.40;;
25207;SDS011;13153;52.316;21.166;2023-07-02T12:51:16;2.25;;;1.92;;
25207;SDS011;13153;52.316;21.166;2023-07-02T12:53:42;2.50;;;1.90;;
25207;SDS011;13153;52.316;21.166;2023-07-02T12:56:08;4.03;;;2.20;;
25207;SDS011;13153;52.316;21.166;2023-07-02T12:58:34;5.15;;;2.15;;
25207;SDS011;13153;52.316;21.166;2023-07-02T13:00:59;2.95;;;2.00;;
25207;SDS011;13153;52.316;21.166;2023-07-02T13:03:25;2.53;;;2.08;;
25207;SDS011;13153;52.316;21.166;2023-07-02T13:05:51;4.85;;;2.35;;
25207;SDS011;13153;52.316;21.166;2023-07-02T13:08:17;7.38;;;2.03;;
25207;SDS011;13153;52.316;21.166;2023-07-02T13:10:43;4.20;;;1.90;;
25207;SDS011;13153;52.316;21.166;2023-07-02T13:13:08;2.83;;;1.77;;
25207;SDS011;13153;52.316;21.166;2023-07-02T13:15:34;4.10;;;1.90;;
25207;SDS011;13153;52.316;21.166;2023-07-02T13:18:00;2.67;;;1.90;;
25207;SDS011;13153;52.316;21.166;2023-07-02T13:20:26;7.43;;;2.08;;
25207;SDS011;13153;52.316;21.166;2023-07-02T13:22:52;2.50;;;1.90;;
25207;SDS011;13153;52.316;21.166;2023-07-02T13:25:18;5.97;;;4.10;;
25207;SDS011;13153;52.316;21.166;2023-07-02T13:27:44;3.97;;;1.88;;
25207;SDS011;13153;52.316;21.166;2023-07-02T13:30:09;3.30;;;1.83;;
25207;SDS011;13153;52.316;21.166;2023-07-02T13:32:36;3.83;;;2.00;;
25207;SDS011;13153;52.316;21.166;2023-07-02T13:35:01;4.90;;;2.20;;
25207;SDS011;13153;52.316;21.166;2023-07-02T13:37:27;3.30;;;1.75;;
25207;SDS011;13153;52.316;21.166;2023-07-02T13:39:53;2.78;;;1.77;;
25207;SDS011;13153;52.316;21.166;2023-07-02T13:42:19;4.25;;;1.80;;
25207;SDS011;13153;52.316;21.166;2023-07-02T13:44:45;2.05;;;1.70;;
25207;SDS011;13153;52.316;21.166;2023-07-02T13:47:11;2.95;;;1.90;;
25207;SDS011;13153;52.316;21.166;2023-07-02T13:49:37;3.28;;;1.70;;
25207;SDS011;13153;52.316;21.166;2023-07-02T13:52:03;1.90;;;1.52;;
25207;SDS011;13153;52.316;21.166;2023-07-02T13:54:29;5.15;;;1.92;;
25207;SDS011;13153;52.316;21.166;2023-07-02T13:56:55;4.97;;;1.85;;
25207;SDS011;13153;52.316;21.166;2023-07-02T13:59:21;2.75;;;1.70;;
25207;SDS011;13153;52.316;21.166;2023-07-02T14:01:48;2.78;;;1.70;;
25207;SDS011;13153;52.316;21.166;2023-07-02T14:04:15;3.60;;;1.70;;
25207;SDS011;13153;52.316;21.166;2023-07-02T14:06:43;2.35;;;1.85;;
25207;SDS011;13153;52.316;21.166;2023-07-02T14:09:09;1.60;;;1.50;;
25207;SDS011;13153;52.316;21.166;2023-07-02T14:11:37;2.25;;;1.63;;
25207;SDS011;13153;52.316;21.166;2023-07-02T14:14:05;3.47;;;1.70;;
25207;SDS011;13153;52.316;21.166;2023-07-02T14:16:31;3.95;;;1.70;;
25207;SDS011;13153;52.316;21.166;2023-07-02T14:18:57;2.47;;;1.80;;
25207;SDS011;13153;52.316;21.166;2023-07-02T14:21:23;2.13;;;1.60;;
25207;SDS011;13153;52.316;21.166;2023-07-02T14:23:49;2.35;;;1.80;;
25207;SDS011;13153;52.316;21.166;2023-07-02T14:26:14;5.90;;;2.72;;
25207;SDS011;13153;52.316;21.166;2023-07-02T14:28:40;3.28;;;1.85;;
25207;SDS011;13153;52.316;21.166;2023-07-02T14:31:06;3.22;;;1.73;;
25207;SDS011;13153;52.316;21.166;2023-07-02T14:33:33;2.08;;;1.80;;
25207;SDS011;13153;52.316;21.166;2023-07-02T14:36:01;3.05;;;1.80;;